Weather observations for the past three days for
Ahoskie, Tri-County Airport
Metric (Imperial)
Date Time (edt) Wind (kph) Vis. (km) Weather Sky Cond. Temperature (ºC) Relative Humidity Wind Chill (°C) Heat Index (°C) Pressure Precipitation (cm)
Air Dwpt 6 hour altimeter (cm) sea level (mb) 1 hr 3 hr 6 hr
Max. Min.
06 11:35 S 15 G 28 16.09 Mostly Cloudy BKN110 21.8 15.4 67% 76.12 0.0
06 11:15 S 9 16.09 Mostly Cloudy BKN110 21 15.4 70% 76.12 0.0
06 10:55 S 13 G 26 16.09 Partly Cloudy SCT100 20.1 15.2 74% 76.15 0.0 0.18
06 10:35 S 15 16.09 Light Rain SCT100 SCT120 19.6 14.9 74% 76.15 0.0
06 10:15 S 9 16.09 Mostly Cloudy BKN110 19.5 14.7 74% 76.15 0.0
06 09:55 S 7 16.09 Mostly Cloudy BKN110 19.3 14.5 74% 76.15 0.0 0.1
06 09:35 S 15 0.00 Mostly Cloudy BKN110 19.1 14.3 74% 76.15 0.0 0.1
06 09:15 SW 13 G 26 16.09 Fair CLR 19.2 14.1 72% 76.15 0.0
06 08:35 S 9 16.09 Fair CLR 18 14.4 80% 76.1 0.0
06 08:15 S 9 16.09 Fair CLR 16.8 14.4 86% 76.15 0.0
06 07:55 S 13 16.09 Fair CLR 16.2 14.1 16.2 13.2 87% 76.15 0.0
06 07:35 S 9 16.09 Fair CLR 15.9 13.9 88% 76.15 0.0
06 07:15 S 11 16.09 Fair CLR 15.5 13.7 89% 76.15 0.0
06 06:55 S 13 16.09 Fair CLR 15 13.6 91% 76.15 0.0
06 06:35 S 11 16.09 Fair CLR 14.2 13.6 96% 76.12 0.0
06 06:15 S 7 16.09 Fair CLR 14.1 13.2 94% 76.15 0.0
06 05:55 S 6 16.09 Fair CLR 13.9 13.1 95% 76.15 0.0
06 05:35 S 7 16.09 Fair CLR 13.6 13.1 97% 76.12 0.0
06 05:15 S 7 16.09 Fair CLR 13.3 13 98% 76.12 0.0
06 04:55 S 9 16.09 Fair CLR 13.2 12.9 98% 76.15 0.0
06 04:40 S 9 16.09 Fair CLR 13.3 12.7 96% 76.15 0.0
06 04:15 S 7 16.09 Fair CLR 13.6 12.6 94% 76.17 0.0
06 03:55 S 6 16.09 Fair CLR 14.1 12.6 91% 76.15 0.0
06 03:35 Calm 16.09 Fair CLR 14.5 12.4 87% 0 0.0
06 03:15 S 7 16.09 Fair CLR 14.6 12.4 87% 76.17 0.0
06 02:55 S 7 16.09 Fair CLR 15 12.2 83% 76.17 0.0
06 02:35 S 7 16.09 Fair CLR 15.1 12 82% 76.15 0.0
06 02:15 S 11 16.09 Fair CLR 15.4 12 80% 76.17 0.0
06 01:55 S 11 16.09 Fair CLR 15.8 11.8 21.9 15.6 77% 76.2 0.0
06 01:35 S 9 16.09 Fair CLR 15.8 11.6 76% 76.2 0.0
06 01:15 S 9 16.09 Fair CLR 16.4 11.6 73% 76.23 0.0
06 00:55 S 11 16.09 Fair CLR 16.9 11.5 71% 76.25 0.0
06 00:35 S 17 16.09 Fair CLR 16.9 11.6 71% 76.23 0.0
06 00:15 S 9 16.09 Fair CLR 16.9 11.6 71% 76.25 0.0
05 23:55 S 11 16.09 Fair CLR 17.5 11.7 69% 76.23 0.0
05 23:35 S 11 16.09 Fair CLR 17.8 12 69% 76.25 0.0
05 23:15 S 17 G 26 16.09 Fair CLR 18 12.1 69% 76.23 0.0
05 22:55 S 17 16.09 Fair CLR 18.4 12.5 69% 76.25 0.0
05 22:35 S 17 16.09 Fair CLR 18.5 12.5 68% 76.23 0.0
05 22:15 S 13 G 28 16.09 Fair CLR 19 12.5 66% 76.23 0.0
05 21:55 S 20 G 30 16.09 Fair CLR 19.2 12.6 66% 76.23 0.0
05 21:35 S 13 16.09 Fair CLR 19.3 12.7 66% 76.2 0.0
05 21:15 S 13 16.09 Fair CLR 19.8 12.7 64% 76.17 0.0
05 20:55 S 17 16.09 Fair CLR 20.4 12.6 61% 76.17 0.0
05 20:35 S 19 G 28 16.09 Fair CLR 20.8 12.5 59% 76.15 0.0
05 20:15 S 20 16.09 Fair CLR 21.4 12.2 56% 76.12 0.0
05 19:55 S 20 G 28 16.09 Fair CLR 21.9 12 27 21.9 54% 76.12 0.0
05 19:35 S 20 G 37 16.09 Fair CLR 22.9 12 50% 76.1 0.0
05 19:15 S 19 G 28 16.09 Fair CLR 23.5 12.5 50% 76.1 0.0
05 18:55 S 15 G 28 16.09 Partly Cloudy SCT060 23.6 12.5 50% 76.1 0.0
05 18:35 S 15 G 28 16.09 Partly Cloudy SCT060 24.7 12 45% 26 76.07 0.0
05 18:15 S 17 G 28 16.09 Fair CLR 25.6 11 40% 26 76.1 0.0
05 17:55 S 15 G 31 16.09 Fair CLR 25.7 10.7 39% 26 76.1 0.0
05 17:35 SW 17 G 31 16.09 Fair CLR 25.7 11 40% 26 76.1 0.0
05 17:15 S 13 16.09 Fair CLR 25.2 10.8 40% 26 76.1 0.0
05 16:55 S 20 G 30 16.09 Fair CLR 25.3 10.4 39% 26 76.1 0.0
05 16:35 SW 19 G 30 16.09 Fair CLR 26.1 10.7 38% 26 76.1 0.0
05 16:15 S 17 G 33 16.09 Fair CLR 25.8 10.6 39% 26 76.1 0.0
05 15:55 S 15 G 31 16.09 Fair CLR 26.7 10.8 37% 27 76.12 0.0
05 15:35 SW 20 G 28 16.09 Fair CLR 26.4 10.7 37% 26 76.17 0.0
05 15:15 SW 17 G 30 16.09 Fair CLR 26.2 10.7 38% 26 76.2 0.0
05 14:55 S 22 G 30 16.09 Fair CLR 26.5 10.5 37% 26 76.2 0.0
05 14:35 S 17 G 33 16.09 Fair CLR 26 10.2 37% 26 76.23 0.0
05 14:15 SW 17 16.09 Fair CLR 26.2 10.5 37% 26 76.23 0.0
05 13:55 S 20 G 30 16.09 Fair CLR 25.8 10.5 26 15 38% 26 76.23 0.0
05 13:35 S 11 16.09 Fair CLR 25.4 10.1 38% 26 76.23 0.0
05 13:15 SW 9 G 28 16.09 Fair CLR 25.4 11 41% 26 76.23 0.0
05 12:55 SW 17 G 26 16.09 Fair CLR 24.9 10.9 41% 26 76.28 0.0
05 12:35 S 19 G 35 16.09 Fair CLR 24.5 10.8 42% 26 76.28 0.0
05 12:15 S 17 G 26 16.09 Fair CLR 24.1 10.9 44% 25 76.3 0.0
05 11:55 SW 15 G 26 16.09 Fair CLR 23.8 11.3 46% 76.3 0.0
05 11:35 S 11 16.09 Fair CLR 23.5 11.4 47% 76.3 0.0
05 11:15 SW 11 16.09 Fair CLR 22.9 11.7 49% 76.33 0.0
05 10:55 S 11 16.09 Fair CLR 22.4 11.8 51% 76.3 0.0
05 10:35 SW 9 16.09 Fair CLR 21.5 11.2 52% 76.3 0.0
05 10:15 SW 13 16.09 Fair CLR 21.2 11.1 53% 76.33 0.0
05 09:55 SW 13 16.09 Fair CLR 20.4 11 55% 76.33 0.0
05 09:35 SW 13 16.09 Fair CLR 19.7 11.2 58% 76.33 0.0
05 09:15 SW 9 16.09 Fair CLR 18.6 10.9 61% 76.33 0.0
05 08:55 SW 9 16.09 Fair CLR 17.9 10.7 63% 76.33 0.0
05 08:35 SW 7 16.09 Fair CLR 17 10.6 66% 76.33 0.0
05 08:15 S 11 16.09 Fair CLR 16 10.4 70% 76.33 0.0
05 07:55 S 9 16.09 Fair CLR 14.9 10.3 14.9 10.8 74% 76.33 0.0
05 07:35 S 11 16.09 Fair CLR 13.8 10 78% 76.3 0.0
05 07:15 S 7 16.09 Fair CLR 12.6 10 84% 76.3 0.0
05 06:55 S 7 16.09 Fair CLR 11.9 9.8 87% 76.3 0.0
05 06:35 S 7 16.09 Fair CLR 11.4 9.8 90% 76.28 0.0
05 06:15 S 6 16.09 Fair CLR 11.2 9.7 91% 76.28 0.0
05 05:55 S 6 16.09 Fair CLR 10.9 9.8 93% 76.25 0.0
05 05:35 S 7 16.09 Fair CLR 11.4 9.6 89% 76.25 0.0
05 05:15 S 6 16.09 Fair CLR 11.5 9.7 89% 76.23 0.0
05 04:55 S 6 16.09 Fair CLR 11.4 9.3 87% 76.23 0.0
05 04:35 S 6 16.09 Fair CLR 11.5 9.2 86% 76.23 0.0
05 04:15 S 6 16.09 Fair CLR 12.1 9.2 83% 76.23 0.0
05 03:55 S 6 16.09 Fair CLR 12.6 9.1 79% 76.2 0.0
05 03:35 S 6 16.09 Fair CLR 13.2 9.1 76% 76.2 0.0
05 03:15 S 7 16.09 Fair CLR 13.6 9.2 75% 76.2 0.0
05 02:55 S 7 16.09 Fair CLR 13.7 9.1 74% 76.2 0.0
05 02:35 S 7 16.09 Fair CLR 14.1 9.2 73% 76.2 0.0
05 02:15 S 7 16.09 Fair CLR 14.2 9.2 72% 76.2 0.0
05 01:55 S 7 16.09 Fair CLR 14 9.2 21 14 73% 76.2 0.0
05 01:35 S 7 16.09 Fair CLR 14.4 9.1 71% 76.2 0.0
05 01:15 S 9 16.09 Fair CLR 14.9 9.2 69% 76.23 0.0
05 00:55 S 7 16.09 Fair CLR 14.3 9.2 72% 76.23 0.0
05 00:35 S 7 16.09 Fair CLR 15.2 9.3 68% 76.23 0.0
05 00:15 S 7 16.09 Fair CLR 15.7 9.3 66% 76.2 0.0
04 23:55 S 9 16.09 Fair CLR 16 9.3 65% 76.2 0.0
04 23:35 S 9 16.09 Fair CLR 16.2 9.3 64% 76.2 0.0
04 23:15 S 11 16.09 Fair CLR 16.6 9.3 62% 76.2 0.0
04 22:55 S 15 16.09 Fair CLR 16.7 9.3 62% 76.2 0.0
04 22:35 S 15 16.09 Fair CLR 17 9.4 61% 76.17 0.0
04 22:15 S 15 G 26 16.09 Fair CLR 17.5 9.5 60% 76.15 0.0
04 21:55 S 13 16.09 Fair CLR 18.1 9.6 58% 76.15 0.0
04 21:35 S 17 16.09 Fair CLR 18.4 10.1 59% 76.15 0.0
04 21:15 S 13 16.09 Fair CLR 19 10.5 58% 76.12 0.0
04 20:55 S 17 16.09 Fair CLR 19.3 10.7 58% 76.1 0.0
04 20:35 S 19 G 30 16.09 Fair CLR 19.6 9.8 53% 76.07 0.0
04 20:15 S 11 16.09 Fair CLR 20.3 6.5 41% 76.05 0.0
04 19:55 S 7 16.09 Fair CLR 21.1 6.5 25.5 21.1 39% 76.02 0.0
04 19:35 S 6 16.09 Fair CLR 22 6.4 37% 76.02 0.0
04 19:15 S 6 16.09 Fair CLR 22.5 6.4 35% 76.02 0.0
04 18:55 SW 9 16.09 Fair CLR 23.6 5.9 32% 76.02 0.0
04 18:35 S 13 16.09 Fair CLR 24 5.8 31% 25 76.02 0.0
04 17:55 S 9 16.09 Fair CLR 23.8 5.7 31% 76.02 0.0
04 17:35 S 17 16.09 Fair CLR 24.7 5.9 30% 25 76.02 0.0
04 17:15 SW 13 G 26 16.09 Fair CLR 25.1 5.5 28% 25 76.02 0.0
04 16:55 SW 15 G 28 16.09 Fair CLR 24.9 4.9 28% 25 76.02 0.0
04 16:35 SW 15 G 28 16.09 Fair CLR 25.1 5 27% 25 76.02 0.0
04 16:15 SW 13 16.09 Fair CLR 25 4.9 27% 25 76.05 0.0
04 15:55 SW 15 16.09 Fair CLR 25 5.6 29% 25 76.05 0.0
04 15:35 SW 15 G 28 16.09 Fair CLR 24.7 6.1 30% 25 76.07 0.0
04 15:15 SW 15 G 28 16.09 Fair CLR 24.6 6.1 31% 25 76.07 0.0
04 14:55 SW 19 G 33 16.09 Fair CLR 24.9 5.7 29% 25 76.1 0.0
04 14:35 S 13 16.09 Fair CLR 24.1 5.8 31% 25 76.1 0.0
04 14:15 SW 9 16.09 Fair CLR 24.2 6.4 32% 25 76.12 0.0
04 13:55 SW 13 G 30 16.09 Fair CLR 23.7 7 23.8 11.3 34% 76.15 0.0
04 13:35 SW 13 16.09 Fair CLR 23.2 7.2 36% 76.17 0.0
04 13:15 W 9 16.09 Fair CLR 23.1 7.1 36% 76.17 0.0
04 12:55 SW 11 16.09 Fair CLR 22.5 7.6 38% 76.2 0.0
04 12:35 SW 7 16.09 Fair CLR 22.6 7.7 38% 76.23 0.0
04 12:15 S 17 16.09 Partly Cloudy SCT002 21.8 7.9 41% 76.25 0.0
04 11:55 SW 9 16.09 Fair CLR 21.2 7.9 42% 76.25 0.0
04 11:35 S 15 16.09 Fair CLR 20.4 8.3 46% 76.28 0.0
04 11:15 SW 11 16.09 Fair CLR 20 8.5 48% 76.28 0.0
04 10:55 S 9 16.09 Fair CLR 19.4 9.1 52% 76.3 0.0
04 10:35 SW 11 16.09 Fair CLR 18.6 8.7 53% 76.3 0.0
04 10:15 W 9 16.09 Fair CLR 18 8.6 54% 76.3 0.0
04 09:55 SW 9 16.09 Fair CLR 17.2 9 59% 76.3 0.0
04 09:35 SW 11 16.09 Fair CLR 16.4 9.3 63% 76.3 0.0
04 09:15 SW 9 16.09 Fair CLR 14.9 8.7 67% 76.33 0.0
04 08:55 SW 11 16.09 Fair CLR 13.7 8.5 71% 76.33 0.0
04 08:35 SW 7 16.09 Fair CLR 12.9 8.3 74% 76.35 0.0
04 08:15 SW 9 16.09 Fair CLR 12.2 7.9 75% 76.35 0.0
04 07:55 SW 6 16.09 Fair CLR 11.1 7.7 11.1 5.5 80% 76.35 0.0
04 07:35 Calm 16.09 Fair CLR 9.8 7.2 84% 76.35 0.0
04 07:15 Calm 16.09 Fair CLR 8 7 93% 76.35 0.0
04 06:55 Calm 16.09 Fair CLR 6.3 5.8 97% 76.35 0.0
04 06:35 S 6 16.09 Fair CLR 5.6 5.4 99% 76.35 0.0
04 06:15 S 6 16.09 Fair CLR 5.5 5 97% 76.35 0.0
04 05:55 Calm 16.09 Fair CLR 6.3 4.5 88% 76.35 0.0
04 05:35 Calm 16.09 Fair CLR 6.4 4.3 87% 76.35 0.0
04 05:15 S 6 16.09 Fair CLR 5.7 4 89% 76.35 0.0
04 04:55 S 6 16.09 Partly Cloudy SCT120 6.4 4.1 85% 76.38 0.0
04 04:35 S 7 16.09 Overcast OVC120 6.4 4.2 86% 5 76.38 0.0
04 04:15 S 7 16.09 Overcast OVC120 6.3 4.6 89% 5 76.38 0.0
04 03:55 S 6 16.09 Mostly Cloudy BKN120 6.1 3.3 82% 76.38 0.0
04 03:35 Calm 16.09 Mostly Cloudy BKN120 6.4 3.2 80% 76.38 0.0
04 03:15 S 6 16.09 Partly Cloudy SCT120 6.5 3.2 80% 76.38 0.0
04 02:55 S 6 16.09 Partly Cloudy SCT120 6.6 3.2 79% 76.38 0.0
04 02:35 S 6 16.09 Fair CLR 5.6 3.1 84% 76.4 0.0
04 02:15 Calm 16.09 Fair CLR 5.5 3 84% 76.38 0.0
04 01:55 SE 6 16.09 Fair CLR 5.7 2.7 11.3 3.8 81% 76.4 0.0
04 01:35 SE 7 16.09 Fair CLR 4.6 2.6 87% 3 76.38 0.0
04 01:15 SE 6 16.09 Fair CLR 4.3 3.8 97% 76.4 0.0
04 00:55 Calm 16.09 Fair CLR 4 3.7 98% 76.4 0.0
04 00:35 Calm 16.09 Fair CLR 4.3 4 98% 76.38 0.0
04 00:15 Calm 16.09 Fair CLR 4.5 4.3 99% 76.38 0.0
03 23:55 Calm 16.09 Fair CLR 5 3.7 91% 76.4 0.0
03 23:35 S 6 16.09 Fair CLR 4.6 3.1 90% 76.38 0.0
03 23:15 S 6 16.09 Fair CLR 5 4.2 95% 76.38 0.0
03 22:55 S 6 16.09 Fair CLR 4.6 4.2 97% 76.38 0.0
03 22:35 Calm 16.09 Fair CLR 5.1 4.1 93% 76.38 0.0
03 22:15 Calm 16.09 Fair CLR 5.6 4.6 93% 76.38 0.0
03 21:55 Calm 16.09 Fair CLR 6.2 3.8 85% 76.38 0.0
03 21:35 Calm 16.09 Fair CLR 6.2 3.4 82% 76.38 0.0
03 21:15 Calm 16.09 Fair CLR 7.3 2.3 71% 76.35 0.0
03 20:55 Calm 16.09 Fair CLR 8 3.7 75% 76.33 0.0
03 20:35 Calm 16.09 Fair CLR 8.9 2.7 65% 76.3 0.0
03 20:15 Calm 16.09 Fair CLR 10.6 1.6 54% 76.3 0.0
03 19:55 Calm 16.09 Fair CLR 11.1 2.2 17.1 11.1 55% 76.28 0.0
03 19:35 Calm 16.09 Fair CLR 15.2 -1 33% 76.28 0.0
03 19:15 W 6 16.09 Fair CLR 15.8 -1.5 31% 76.25 0.0
03 18:55 W 6 16.09 Fair CLR 16.2 -1.8 29% 76.25 0.0
03 18:35 W 9 16.09 Fair CLR 16.6 -0.9 31% 76.25 0.0
03 18:15 NW 13 16.09 Fair CLR 16.7 -0.8 31% 76.25 0.0
03 17:55 NW 11 16.09 Fair CLR 16.6 -0.9 31% 76.23 0.0
03 17:35 W 11 16.09 Fair CLR 17 -0.9 30% 76.25 0.0
03 17:15 NW 15 16.09 Fair CLR 17 -1.5 28% 76.25 0.0
03 16:55 W 13 16.09 Fair CLR 17 -1.1 29% 76.23 0.0
03 16:35 W 11 16.09 Fair CLR 16.8 -0.6 31% 76.25 0.0
03 16:15 NW 6 G 26 16.09 Fair CLR 16.8 -0.7 31% 76.28 0.0
03 15:55 NW 7 16.09 Fair CLR 16.8 -0.4 31% 76.28 0.0
03 15:35 W 11 16.09 Fair CLR 16.9 -0.6 31% 76.3 0.0
03 15:15 NW 6 16.09 Fair CLR 16.2 0.1 34% 76.3 0.0
03 14:55 NW 9 16.09 Fair CLR 16.1 -0.7 32% 76.33 0.0
03 14:35 W 13 16.09 Fair CLR 16 -0.1 34% 76.33 0.0
03 14:15 NW 13 16.09 Fair CLR 16.1 0.8 36% 76.35 0.0
03 13:55 W 11 G 30 16.09 Fair CLR 15.1 0 15.7 8.2 36% 76.35 0.0
03 13:35 W 9 G 30 16.09 Fair CLR 14.9 0 36% 76.35 0.0
03 13:15 NW 20 G 28 16.09 Fair CLR 14.9 0.7 38% 76.38 0.0
03 12:55 NW 13 G 30 16.09 Fair CLR 14.6 0.9 40% 76.4 0.0
03 12:35 NW 19 G 28 16.09 Partly Cloudy SCT050 14.1 0.6 40% 76.4 0.0
03 12:15 N 11 G 28 16.09 Partly Cloudy SCT050 13.2 0.3 41% 76.43 0.0
Date Time (edt) Wind (kph) Vis. (km) Weather Sky Cond. Air Dwpt Max. Min. Relative Humidity Wind Chill (°C) Heat Index (°C) altimeter (cm) sea level (mb) 1 hr 3 hr 6 hr
6 hour
Temperature (ºC) Pressure Precipitation (cm)